This is the latest recevied weather packets stored in our database for station/object NI4CE-10. If no packets are shown the sender has not sent any weather packets the latest 1 day(s).
| Time | Temp. | Humidity | Pressure | Rain* | Wind** | Luminosity | Snow |
|---|---|---|---|---|---|---|---|
| 1778033860 | 23.33° C | 100% | 1018.6 hPa | 0 mm | 2.68 m/s, 106° | - | - |
| 1778033745 | 23.33° C | 100% | 1018.6 hPa | 0 mm | 2.68 m/s, 106° | - | - |
| 1778033445 | 23.33° C | 100% | 1018.6 hPa | 0 mm | 0 m/s | - | - |
| 1778033437 | 23.33° C | 100% | 1018.7 hPa | 0 mm | 1.34 m/s, 97° | - | - |
| 1778033189 | 23.33° C | 100% | 1018.7 hPa | 0 mm | 1.34 m/s, 97° | - | - |
| 1778033145 | 23.33° C | 100% | 1018.7 hPa | 0 mm | 1.34 m/s, 97° | - | - |
| 1778032845 | 22.78° C | 100% | 1018.6 hPa | 0 mm | 1.79 m/s, 130° | - | - |
| 1778032773 | 23.33° C | 100% | 1018.5 hPa | 0 mm | 0 m/s | - | - |
| 1778032545 | 23.33° C | 100% | 1018.5 hPa | 0 mm | 0 m/s | - | - |
| 1778032503 | 22.78° C | 100% | 1018.5 hPa | 0 mm | 0.45 m/s, 26° | - | - |
| 1778032245 | 22.78° C | 100% | 1018.5 hPa | 0 mm | 0.45 m/s, 26° | - | - |
| 1778031945 | 23.33° C | 100% | 1018.4 hPa | 0 mm | 0.89 m/s, 98° | - | - |
| 1778031933 | 23.33° C | 100% | 1018.3 hPa | 0 mm | 0.89 m/s, 109° | - | - |
| 1778031645 | 23.33° C | 100% | 1018.3 hPa | 0 mm | 0.89 m/s, 109° | - | - |
| 1778031508 | 23.89° C | 100% | 1018.3 hPa | 0 mm | 0.45 m/s, 19° | - | - |
| 1778031345 | 23.89° C | 100% | 1018.3 hPa | 0 mm | 0.45 m/s, 19° | - | - |
| 1778031304 | 23.89° C | 100% | 1018.1 hPa | 0 mm | 1.34 m/s, 333° | - | - |
| 1778031304 | 23.89° C | 100% | 1018.3 hPa | 0 mm | 1.79 m/s, 358° | - | - |
| 1778031253 | 23.89° C | 100% | 1018.3 hPa | 0 mm | 1.79 m/s, 358° | - | - |
| 1778031100 | 23.89° C | 100% | 1018.3 hPa | 0 mm | 1.79 m/s, 358° | - | - |
| 1778031045 | 23.89° C | 100% | 1018.3 hPa | 0 mm | 1.79 m/s, 358° | - | - |
| 1778031017 | 23.89° C | 100% | 1018.1 hPa | 0 mm | 1.34 m/s, 333° | - | - |
| 1778030745 | 23.89° C | 100% | 1018.1 hPa | 0 mm | 1.34 m/s, 333° | - | - |
| 1778030445 | 23.89° C | 100% | 1018.2 hPa | 0 mm | 2.24 m/s, 330° | - | - |
| 1778030442 | 23.89° C | 100% | 1018.1 hPa | 0 mm | 1.79 m/s, 350° | - | - |
* Rain latest hour (hover to see other rain measurements)
** Current wind speed in m/s (hover to see current wind gust speed)